ADDS TAF Board (Experimental) INFO Settings
IDs: Format: Expanded Condensed

KMCO - Orlando Intl, FL, US

Issued at 1458 UTC 28 May 2016
Updated at: 1602 UTC 28 May 2016
Time1553Z 28/17Z 28/18Z 28/19Z 28/20Z 28/21Z 28/22Z 28/23Z 29/00Z 29/01Z 29/02Z 29/03Z 29/04Z 29/05Z
Type OBS PRVL PRVL PRVL PRVL PRVL PRVL PRVL PRVL PRVL PRVL PRVL PRVL PRVL
VIS 10 >6 >6 >6 >6 >6 >6 >6 >6 >6 >6 >6 >6 >6
CIG -- 80 80 80 80 80 80 80 80 -- -- -- -- --
Cover CLR BKN BKN BKN BKN BKN BKN BKN BKN SKC SKC SKC SKC SKC
FltCat VFR VFR VFR VFR VFR VFR VFR VFR VFR VFR VFR VFR VFR VFR
WX -- VCSH VCSH VCSH VCSH VCSH VCSH VCSH VCSH -- -- -- -- --
WDir VRB 50 50 50 50 50 50 50 50 10 10 10 10 10
WSpd 5 9 9 9 9 9 9 9 9 6 6 6 6 6
WGst -- -- -- -- -- -- -- -- -- -- -- -- -- --
R17/35
XWnd VRB 7 7 7 7 7 7 7 7 1 1 1 1 1
HWnd VRB -6 -6 -6 -6 -6 -6 -6 -6 -6 -6 -6 -6 -6
R18/36
XWnd VRB 7 7 7 7 7 7 7 7 1 1 1 1 1
HWnd VRB -6 -6 -6 -6 -6 -6 -6 -6 -6 -6 -6 -6 -6

NOTE: TEMPO conditions in [brackets]. Keep in mind TEMPO conditions might be better (lower impact) than prevailing conditions.

Raw TAF
KMCO 281458Z 2815/2912 36005KT P6SM SCT027 SCT090
  FM281700 05009KT P6SM VCSH SCT040 BKN080
  FM290100 01006KT P6SM SKC
  FM290600 00000KT P6SM BKN250


Raw METAR
KMCO 281553Z VRB05KT 10SM CLR 30/18 A3004 RMK AO2 SLP171 T03000183
KMCO 281453Z 33005KT 10SM SCT027 SCT090 28/19 A3004 RMK AO2 SLP172 T02830194 50003
KMCO 281353Z 32006KT 10SM SCT023 SCT085 27/20 A3005 RMK AO2 SLP173 T02720200

METAR Board
Radar Display
Forecast Discussion

TAF Board Legend

Potential Impact
Threat None Slight Moderate High
Visibility (sm) ≥5.1 5.1>X≥3 3>X≥1 <1
Ceiling (100 ft) ≥30.1 30.1>X≥10 10>X≥5 <5
Wind Speed (kt) <10 10≤X<20 20≤X<30 ≥30
Wind Gust (kt) <15 15≤X<25 25≤X<35 ≥35
Weather No Wx Reported VCTS,-TS,-FZRA,SN TS,FZRA +TS,+FZRA,+SN